createdAt,value
2022-09-05T00:02:12.890Z,3.53
2022-09-05T00:04:54.026Z,4.32
2022-09-05T00:07:59.163Z,4.35
2022-09-05T00:11:16.786Z,3.72
2022-09-05T00:13:38.582Z,5.43
2022-09-05T00:16:25.798Z,4.18
2022-09-05T00:24:25.587Z,5.53
2022-09-05T00:24:33.003Z,3.80
2022-09-05T00:26:06.520Z,4.13
2022-09-05T00:29:21.741Z,4.97
2022-09-05T00:32:36.181Z,3.83
2022-09-05T00:35:39.543Z,4.45
2022-09-05T00:38:22.314Z,5.40
2022-09-05T00:40:58.270Z,5.20
2022-09-05T00:43:39.072Z,3.60
2022-09-05T00:46:19.040Z,3.42
2022-09-05T00:49:23.997Z,4.25
2022-09-05T00:52:06.506Z,4.07
2022-09-05T00:54:58.264Z,4.03
2022-09-05T00:58:10.739Z,3.88
2022-09-05T01:00:54.417Z,4.53
2022-09-05T01:03:36.084Z,5.53
2022-09-05T01:06:25.717Z,5.30
2022-09-05T01:09:33.868Z,5.10
2022-09-05T01:12:19.838Z,5.97
2022-09-05T01:15:23.083Z,5.95
2022-09-05T01:17:57.082Z,6.78
2022-09-05T01:21:26.547Z,5.25
2022-09-05T01:24:18.193Z,4.03
2022-09-05T01:28:49.702Z,4.80
2022-09-05T01:30:50.326Z,4.93
2022-09-05T01:33:40.136Z,4.47
2022-09-05T01:36:47.706Z,5.00
2022-09-05T01:40:11.357Z,5.68
2022-09-05T01:43:06.166Z,5.72
2022-09-05T01:45:52.699Z,5.63
2022-09-05T01:48:57.252Z,4.85
2022-09-05T01:52:00.266Z,4.55
2022-09-05T01:54:52.151Z,5.55
2022-09-05T01:57:37.752Z,4.80
2022-09-05T02:00:36.824Z,5.13
2022-09-05T02:03:30.157Z,5.20
2022-09-05T02:06:28.081Z,5.85
2022-09-05T02:09:13.887Z,5.45
2022-09-05T02:11:58.140Z,4.90
2022-09-05T02:15:09.586Z,5.45
2022-09-05T02:17:51.381Z,4.78
2022-09-05T02:20:42.738Z,5.18
2022-09-05T02:23:25.985Z,6.40
2022-09-05T02:26:19.782Z,5.32
2022-09-05T02:29:29.310Z,6.65
2022-09-05T02:32:11.789Z,6.38
2022-09-05T02:34:41.682Z,4.88
2022-09-05T02:38:38.001Z,5.90
2022-09-05T02:45:08.247Z,5.55
2022-09-05T02:45:12.795Z,4.07
2022-09-05T02:47:14.837Z,7.72
2022-09-05T02:55:09.942Z,6.78
2022-09-05T02:57:35.416Z,5.47
2022-09-05T02:57:37.799Z,6.40
2022-09-05T02:59:42.657Z,6.35
2022-09-05T03:02:27.263Z,6.45
2022-09-05T03:05:22.931Z,5.95
2022-09-05T03:08:10.917Z,5.25
2022-09-05T03:11:04.988Z,5.43
2022-09-05T03:14:43.334Z,7.20
2022-09-05T03:17:34.267Z,5.50
2022-09-05T03:20:41.394Z,6.57
2022-09-05T03:24:02.023Z,6.72
2022-09-05T03:26:56.644Z,7.95
2022-09-05T03:29:58.681Z,5.93
2022-09-05T03:33:05.666Z,6.00
2022-09-05T03:35:53.356Z,5.63
2022-09-05T03:39:15.846Z,5.75
2022-09-05T03:41:57.662Z,5.68
2022-09-05T03:44:48.939Z,5.55
2022-09-05T03:47:36.815Z,6.18
2022-09-05T03:56:05.601Z,7.55
2022-09-05T03:57:26.577Z,8.93
2022-09-05T03:57:42.736Z,5.80
2022-09-05T04:00:33.676Z,5.70
2022-09-05T04:08:09.442Z,5.50
2022-09-05T04:08:19.249Z,6.68
2022-09-05T04:09:49.042Z,5.40
2022-09-05T04:12:31.363Z,7.07
2022-09-05T04:15:08.494Z,7.65
2022-09-05T04:17:50.583Z,6.57
2022-09-05T04:20:43.925Z,7.22
2022-09-05T04:23:30.253Z,6.80
2022-09-05T04:26:26.983Z,5.97
2022-09-05T04:29:16.592Z,6.05
2022-09-05T04:32:19.048Z,6.07
2022-09-05T04:35:30.060Z,6.40
2022-09-05T04:38:12.973Z,6.82
2022-09-05T04:41:04.441Z,6.88
2022-09-05T04:43:39.878Z,7.90
2022-09-05T04:46:23.950Z,6.75
2022-09-05T04:49:20.515Z,7.30
2022-09-05T04:52:30.356Z,7.38
2022-09-05T04:55:14.029Z,5.85
2022-09-05T04:58:49.399Z,6.72
2022-09-05T05:06:03.932Z,6.95
2022-09-05T05:06:14.076Z,8.38
2022-09-05T05:07:50.510Z,7.10
2022-09-05T05:11:31.881Z,7.50
2022-09-05T05:18:01.327Z,7.82
2022-09-05T05:18:15.156Z,7.93
2022-09-05T05:19:25.675Z,5.93
2022-09-05T05:22:02.260Z,8.57
2022-09-05T05:24:43.323Z,4.53
2022-09-05T05:27:16.076Z,7.20
2022-09-05T05:29:49.092Z,5.97
2022-09-05T05:32:45.996Z,4.95
2022-09-05T05:35:20.581Z,6.53
2022-09-05T05:38:26.301Z,6.13
2022-09-05T05:41:29.707Z,4.80
2022-09-05T05:43:57.635Z,4.88
2022-09-05T05:46:39.530Z,4.90
2022-09-05T05:49:27.453Z,5.25
2022-09-05T05:52:49.300Z,6.07
2022-09-05T05:55:51.811Z,8.13
2022-09-05T05:58:53.422Z,6.03
2022-09-05T06:01:37.940Z,4.50
2022-09-05T06:04:29.809Z,6.32
2022-09-05T06:07:17.519Z,6.50
2022-09-05T06:14:53.129Z,6.35
2022-09-05T06:14:59.172Z,7.80
2022-09-05T06:16:28.637Z,8.07
2022-09-05T06:19:25.417Z,5.93
2022-09-05T06:22:43.447Z,8.82
2022-09-05T06:25:44.169Z,5.53
2022-09-05T06:28:48.899Z,6.00
2022-09-05T06:31:31.122Z,6.00
2022-09-05T06:34:07.619Z,5.60
2022-09-05T06:37:03.931Z,6.40
2022-09-05T06:40:02.612Z,6.97
2022-09-05T06:43:03.705Z,9.10
2022-09-05T06:46:10.361Z,8.07
2022-09-05T06:49:30.457Z,6.75
2022-09-05T06:52:22.940Z,6.63
2022-09-05T06:55:10.966Z,7.03
2022-09-05T06:58:02.519Z,6.05
2022-09-05T07:00:46.841Z,6.72
2022-09-05T07:03:40.119Z,5.80
2022-09-05T07:06:19.350Z,6.63
2022-09-05T07:09:02.553Z,6.75
2022-09-05T07:12:13.398Z,5.50
2022-09-05T07:15:16.682Z,7.07
2022-09-05T07:18:09.949Z,4.40
2022-09-05T07:21:15.872Z,7.25
2022-09-05T07:24:45.597Z,5.72
2022-09-05T07:28:25.744Z,6.28
2022-09-05T07:30:49.992Z,3.20
2022-09-05T07:33:28.013Z,4.90
2022-09-05T07:36:05.844Z,3.47
2022-09-05T07:38:55.097Z,4.47
2022-09-05T07:41:34.905Z,2.90
2022-09-05T07:44:35.908Z,2.60
2022-09-05T07:47:20.737Z,2.40
2022-09-05T07:50:01.730Z,2.70
2022-09-05T07:56:53.143Z,2.08
2022-09-05T07:57:01.958Z,2.17
2022-09-05T07:58:43.933Z,2.03
2022-09-05T08:01:14.502Z,1.77
2022-09-05T08:03:44.042Z,2.63
2022-09-05T08:07:45.621Z,5.50
2022-09-05T08:10:06.070Z,5.15
2022-09-05T08:13:24.192Z,1.95
2022-09-05T08:16:10.634Z,1.90
2022-09-05T08:18:26.890Z,2.38
2022-09-05T08:21:27.444Z,3.42
2022-09-05T08:24:15.768Z,3.42
2022-09-05T08:26:49.996Z,2.85
2022-09-05T08:29:41.629Z,2.45
2022-09-05T08:32:23.561Z,2.75
2022-09-05T08:35:01.436Z,2.35
2022-09-05T08:37:31.642Z,3.03
2022-09-05T08:40:27.935Z,2.22
2022-09-05T08:46:07.849Z,1.85
2022-09-05T08:46:43.693Z,1.42
2022-09-05T08:49:46.503Z,2.60
2022-09-05T08:52:44.272Z,2.60
2022-09-05T08:55:26.755Z,2.65
2022-09-05T08:58:24.105Z,1.88
2022-09-05T09:01:27.867Z,1.80
2022-09-05T09:05:01.019Z,3.17
2022-09-05T09:08:06.324Z,1.95
2022-09-05T09:11:20.844Z,2.50
2022-09-05T09:14:16.448Z,2.70
2022-09-05T09:17:18.978Z,2.20
2022-09-05T09:20:18.228Z,1.95
2022-09-05T09:23:05.421Z,2.20
2022-09-05T09:25:52.548Z,1.75
2022-09-05T09:28:48.000Z,2.53
2022-09-05T09:31:43.476Z,1.88
2022-09-05T09:34:32.888Z,1.45
2022-09-05T09:37:57.521Z,2.95
2022-09-05T09:41:03.442Z,1.38
2022-09-05T09:44:28.085Z,1.80
2022-09-05T09:46:55.667Z,1.63
2022-09-05T09:49:35.684Z,2.28
2022-09-05T09:52:57.064Z,1.52
2022-09-05T09:55:41.778Z,2.00
2022-09-05T09:58:55.787Z,2.33
2022-09-05T10:02:15.620Z,3.90
2022-09-05T10:10:34.810Z,2.30
2022-09-05T10:10:46.908Z,2.22
2022-09-05T10:12:05.473Z,1.70
2022-09-05T10:14:55.534Z,1.25
2022-09-05T10:17:52.801Z,2.92
2022-09-05T10:21:16.952Z,1.98
2022-09-05T10:24:05.992Z,1.60
2022-09-05T10:27:03.261Z,1.30
2022-09-05T10:30:03.393Z,1.60
2022-09-05T10:35:14.559Z,3.47
2022-09-05T10:35:49.172Z,2.42
2022-09-05T10:38:44.388Z,3.15
2022-09-05T10:41:23.140Z,1.52
2022-09-05T10:44:02.459Z,2.40
2022-09-05T10:46:50.646Z,1.45
2022-09-05T10:49:30.024Z,1.60
2022-09-05T10:52:19.190Z,1.30
2022-09-05T10:55:17.382Z,2.22
2022-09-05T10:57:59.237Z,2.42
2022-09-05T11:02:29.727Z,2.67
2022-09-05T11:04:24.694Z,1.85
2022-09-05T11:07:14.113Z,1.23
2022-09-05T11:10:01.808Z,1.45
2022-09-05T11:12:57.668Z,1.40
2022-09-05T11:16:03.576Z,4.47
2022-09-05T11:18:57.646Z,2.17
2022-09-05T11:22:05.112Z,1.30
2022-09-05T11:25:07.427Z,2.33
2022-09-05T11:27:47.948Z,4.10
2022-09-05T11:30:29.626Z,1.40
2022-09-05T11:35:52.973Z,1.95
2022-09-05T11:39:58.553Z,1.23
2022-09-05T11:43:02.963Z,2.15
2022-09-05T11:45:57.952Z,1.73
2022-09-05T11:49:44.623Z,1.98
2022-09-05T11:52:49.114Z,1.55
2022-09-05T11:55:43.440Z,1.20
2022-09-05T11:58:45.172Z,2.10
2022-09-05T12:01:44.136Z,2.00
2022-09-05T12:04:45.077Z,1.20
2022-09-05T12:08:00.243Z,2.15
2022-09-05T12:11:00.083Z,2.85
2022-09-05T12:13:48.040Z,2.45
2022-09-05T12:16:52.296Z,1.38
2022-09-05T12:20:17.170Z,2.08
2022-09-05T12:23:20.893Z,1.13
2022-09-05T12:27:42.928Z,1.70
2022-09-05T12:29:32.769Z,0.80
2022-09-05T12:33:50.750Z,1.67
2022-09-05T12:36:10.332Z,3.47
2022-09-05T12:40:53.380Z,3.55
2022-09-05T12:41:44.040Z,1.75
2022-09-05T12:44:38.823Z,1.20
2022-09-05T12:47:16.965Z,1.48
2022-09-05T12:50:46.127Z,1.40
2022-09-05T12:53:20.201Z,2.00
2022-09-05T12:56:24.833Z,2.40
2022-09-05T13:02:59.071Z,2.00
2022-09-05T13:03:08.115Z,0.80
2022-09-05T13:05:01.743Z,1.10
2022-09-05T13:07:58.155Z,0.85
2022-09-05T13:13:02.588Z,1.52
2022-09-05T13:15:03.213Z,1.45
2022-09-05T13:16:39.726Z,1.73
2022-09-05T13:19:37.414Z,0.93
2022-09-05T13:22:06.317Z,1.70
2022-09-05T13:24:41.498Z,1.88
2022-09-05T13:27:29.573Z,1.63
2022-09-05T13:31:23.267Z,2.75
2022-09-05T13:38:02.195Z,1.60
2022-09-05T13:38:29.013Z,0.98
2022-09-05T13:39:11.954Z,1.38
2022-09-05T13:41:59.408Z,1.42
2022-09-05T13:44:29.925Z,1.52
2022-09-05T13:47:29.016Z,0.82
2022-09-05T13:50:26.457Z,1.95
2022-09-05T13:53:21.188Z,0.90
2022-09-05T13:56:03.510Z,3.30
2022-09-05T13:58:56.470Z,0.95
2022-09-05T14:01:48.434Z,2.35
2022-09-05T14:05:09.664Z,2.42
2022-09-05T14:08:17.799Z,1.73
2022-09-05T14:10:54.999Z,2.80
2022-09-05T14:13:59.400Z,1.00
2022-09-05T14:16:41.961Z,1.25
2022-09-05T14:19:43.415Z,1.25
2022-09-05T14:22:22.230Z,1.02
2022-09-05T14:24:52.923Z,1.65
2022-09-05T14:27:32.422Z,1.27
2022-09-05T14:30:12.781Z,1.30
2022-09-05T14:37:42.475Z,1.73
2022-09-05T14:37:54.223Z,0.93
2022-09-05T14:40:29.983Z,1.25
2022-09-05T14:43:17.466Z,1.15
2022-09-05T14:46:28.706Z,2.63
2022-09-05T14:49:21.741Z,1.60
2022-09-05T14:51:52.708Z,0.98
2022-09-05T15:02:29.959Z,1.60
2022-09-05T15:02:51.541Z,1.20
2022-09-05T15:03:12.398Z,1.15
2022-09-05T15:05:49.996Z,1.60
2022-09-05T15:09:33.310Z,2.75
2022-09-05T15:12:18.810Z,3.42
2022-09-05T15:14:12.116Z,1.45
2022-09-05T15:16:45.531Z,1.08
2022-09-05T15:19:49.281Z,1.27
2022-09-05T15:22:37.791Z,1.55
2022-09-05T15:25:20.043Z,1.05
2022-09-05T15:27:49.761Z,1.35
2022-09-05T15:30:35.071Z,1.20
2022-09-05T15:33:26.177Z,2.20
2022-09-05T15:35:54.582Z,2.55
2022-09-05T15:38:27.900Z,2.28
2022-09-05T15:41:20.787Z,1.73
2022-09-05T15:44:09.415Z,1.55
2022-09-05T15:46:42.674Z,1.63
2022-09-05T15:49:49.874Z,1.35
2022-09-05T15:52:16.586Z,1.25
2022-09-05T15:55:27.765Z,1.17
2022-09-05T15:58:03.118Z,1.88
2022-09-05T16:00:32.873Z,0.93
2022-09-05T16:04:23.648Z,1.55
2022-09-05T16:10:35.641Z,1.33
2022-09-05T16:10:37.467Z,1.95
2022-09-05T16:12:32.223Z,1.30
2022-09-05T16:15:53.506Z,1.42
2022-09-05T16:23:12.346Z,1.42
2022-09-05T16:23:31.904Z,0.70
2022-09-05T16:24:34.880Z,0.93
2022-09-05T16:27:19.410Z,1.60
2022-09-05T16:29:50.462Z,1.77
2022-09-05T16:32:29.572Z,1.13
2022-09-05T16:35:13.748Z,1.83
2022-09-05T16:37:52.528Z,2.13
2022-09-05T16:40:36.419Z,2.03
2022-09-05T16:43:18.287Z,1.20
2022-09-05T16:46:03.859Z,1.02
2022-09-05T16:48:55.436Z,3.50
2022-09-05T16:51:55.433Z,2.13
2022-09-05T16:54:46.008Z,1.95
2022-09-05T16:57:25.564Z,1.85
2022-09-05T16:59:53.071Z,1.92
2022-09-05T17:02:49.255Z,1.45
2022-09-05T17:05:26.473Z,1.50
2022-09-05T17:08:07.384Z,2.55
2022-09-05T17:10:50.711Z,1.35
2022-09-05T17:13:36.764Z,1.10
2022-09-05T17:16:05.865Z,2.90
2022-09-05T17:18:37.542Z,1.67
2022-09-05T17:21:12.810Z,2.70
2022-09-05T17:29:18.076Z,1.92
2022-09-05T17:29:35.093Z,1.15
2022-09-05T17:32:59.541Z,4.25
2022-09-05T17:35:53.566Z,2.55
2022-09-05T17:39:11.220Z,1.70
2022-09-05T17:41:53.021Z,3.05
2022-09-05T17:44:27.542Z,1.48
2022-09-05T17:47:20.575Z,2.00
2022-09-05T17:50:28.195Z,3.22
2022-09-05T17:53:24.870Z,2.22
2022-09-05T17:55:52.367Z,1.80
2022-09-05T17:58:49.486Z,1.58
2022-09-05T18:01:28.184Z,2.83
2022-09-05T18:04:16.192Z,2.22
2022-09-05T18:06:49.050Z,1.42
2022-09-05T18:09:39.855Z,3.33
2022-09-05T18:13:11.589Z,3.10
2022-09-05T18:15:31.709Z,1.42
2022-09-05T18:19:28.118Z,3.05
2022-09-05T18:21:22.053Z,1.42
2022-09-05T18:24:03.937Z,2.35
2022-09-05T18:26:41.115Z,1.80
2022-09-05T18:29:58.482Z,1.75
2022-09-05T18:32:42.736Z,3.03
2022-09-05T18:35:37.093Z,1.73
2022-09-05T18:38:05.296Z,1.75
2022-09-05T18:41:02.681Z,2.22
2022-09-05T18:43:53.315Z,5.32
2022-09-05T18:46:44.848Z,2.03
2022-09-05T18:50:25.752Z,4.20
2022-09-05T18:52:32.810Z,3.05
2022-09-05T18:56:09.988Z,3.05
2022-09-05T18:58:08.734Z,4.53
2022-09-05T19:00:44.837Z,2.53
2022-09-05T19:03:34.055Z,3.58
2022-09-05T19:06:36.336Z,2.40
2022-09-05T19:09:14.494Z,2.92
2022-09-05T19:12:31.833Z,1.60
2022-09-05T19:14:58.799Z,4.22
2022-09-05T19:17:47.166Z,2.97
2022-09-05T19:20:32.440Z,3.40
2022-09-05T19:23:12.405Z,3.50
2022-09-05T19:25:53.939Z,5.03
2022-09-05T19:36:47.152Z,4.40
2022-09-05T19:36:57.368Z,4.25
2022-09-05T19:37:25.552Z,4.15
2022-09-05T19:37:26.229Z,3.85
2022-09-05T19:45:34.358Z,5.60
2022-09-05T19:47:30.725Z,5.15
2022-09-05T19:47:44.911Z,4.78
2022-09-05T19:48:34.433Z,5.38
2022-09-05T19:51:17.085Z,6.25
2022-09-05T19:53:53.817Z,3.33
2022-09-05T19:56:46.411Z,4.63
2022-09-05T19:59:39.616Z,3.50
2022-09-05T20:02:26.195Z,3.83
2022-09-05T20:05:00.821Z,4.57
2022-09-05T20:07:32.106Z,3.83
2022-09-05T20:10:04.006Z,3.30
2022-09-05T20:12:38.957Z,7.57
2022-09-05T20:15:35.956Z,4.20
2022-09-05T20:18:40.854Z,2.83
2022-09-05T20:21:29.958Z,3.58
2022-09-05T20:23:59.798Z,2.92
2022-09-05T20:26:30.247Z,4.75
2022-09-05T20:29:05.958Z,4.93
2022-09-05T20:31:36.720Z,3.60
2022-09-05T20:34:40.723Z,4.70
2022-09-05T20:43:18.387Z,4.72
2022-09-05T20:43:20.811Z,4.70
2022-09-05T20:43:28.427Z,3.80
2022-09-05T20:46:24.292Z,4.05
2022-09-05T20:54:18.398Z,6.13
2022-09-05T20:54:28.316Z,4.13
2022-09-05T20:54:41.307Z,5.20
2022-09-05T20:57:19.856Z,3.92
2022-09-05T20:59:47.397Z,6.60
2022-09-05T21:02:27.328Z,6.45
2022-09-05T21:05:07.975Z,5.32
2022-09-05T21:07:51.273Z,6.10
2022-09-05T21:10:34.196Z,4.22
2022-09-05T21:13:29.839Z,4.45
2022-09-05T21:15:57.851Z,4.18
2022-09-05T21:18:34.076Z,3.25
2022-09-05T21:21:29.149Z,4.60
2022-09-05T21:24:16.593Z,6.32
2022-09-05T21:26:48.360Z,6.47
2022-09-05T21:29:27.453Z,7.22
2022-09-05T21:32:10.555Z,4.40
2022-09-05T21:34:45.708Z,4.05
2022-09-05T21:37:15.803Z,4.30
2022-09-05T21:39:58.417Z,5.63
2022-09-05T21:44:04.430Z,4.18
2022-09-05T21:47:41.736Z,4.03
2022-09-05T21:48:15.063Z,3.50
2022-09-05T21:50:51.227Z,4.63
2022-09-05T21:56:46.662Z,3.95
2022-09-05T21:59:20.126Z,3.88
2022-09-05T22:02:08.218Z,4.18
2022-09-05T22:04:40.236Z,5.63
2022-09-05T22:07:15.665Z,3.53
2022-09-05T22:09:42.514Z,6.63
2022-09-05T22:12:30.172Z,5.50
2022-09-05T22:14:58.224Z,3.60
2022-09-05T22:17:46.586Z,4.90
2022-09-05T22:20:20.224Z,4.30
2022-09-05T22:22:56.121Z,5.07
2022-09-05T22:25:31.450Z,5.15
2022-09-05T22:28:12.779Z,4.45
2022-09-05T22:30:40.004Z,5.97
2022-09-05T22:33:07.859Z,5.13
2022-09-05T22:35:38.991Z,4.30
2022-09-05T22:38:13.300Z,5.47
2022-09-05T22:40:42.533Z,4.72
2022-09-05T22:43:10.789Z,5.10
2022-09-05T22:45:39.520Z,7.50
2022-09-05T22:48:13.734Z,4.72
2022-09-05T22:50:42.442Z,5.57
2022-09-05T22:53:10.374Z,4.70
2022-09-05T22:55:41.424Z,3.90
2022-09-05T22:58:12.482Z,5.20
2022-09-05T23:00:39.634Z,5.32
2022-09-05T23:03:07.842Z,6.70
2022-09-05T23:05:35.243Z,5.38
2022-09-05T23:08:05.006Z,4.65
2022-09-05T23:10:33.181Z,4.75
2022-09-05T23:13:06.232Z,5.50
2022-09-05T23:15:34.221Z,4.50
2022-09-05T23:18:01.558Z,7.18
2022-09-05T23:20:31.651Z,4.47
2022-09-05T23:23:04.723Z,4.43
2022-09-05T23:25:32.723Z,5.00
2022-09-05T23:28:04.908Z,3.67
2022-09-05T23:30:31.700Z,4.03
2022-09-05T23:32:58.554Z,4.35
2022-09-05T23:35:25.413Z,4.75
2022-09-05T23:37:52.242Z,4.10
2022-09-05T23:40:21.936Z,6.22
2022-09-05T23:42:58.801Z,5.05
2022-09-05T23:45:27.191Z,4.47
2022-09-05T23:47:54.487Z,4.88
2022-09-05T23:50:21.505Z,4.97
2022-09-05T23:52:49.449Z,8.77
2022-09-05T23:55:19.724Z,5.85
2022-09-05T23:57:46.720Z,4.97
